Terminal Aerodrome Forecast
Issued by NWS Louisville, KY

Home | Current Version | Previous Version | Text Only | Print | Product List | Glossary On
Versions: 1 2 3 4 5 6 7 8 9 10 11 12 13 14 15
000
FTUS43 KLMK 270520
TAFBWG
TAF
KBWG 270520Z 2706/2806 VRB03KT P6SM FEW070
      TEMPO 2710/2712 2SM BR
     FM271400 07007KT P6SM SCT040
     FM280100 VRB03KT P6SM SKC=

USA.gov is the U.S. government's official web portal to all federal, state and local government web resources and services.